Time;durP1;ratioP1;P1;durP2;ratioP2;P2;SDS_P1;SDS_P2;PMS_P1;PMS_P2;Temp;Humidity;BMP_temperature;BMP_pressure;BME280_temperature;BME280_humidity;BME280_pressure;Samples;Min_cycle;Max_cycle;Signal;HPM_P1;HPM_P2
2023/01/10 00:02:23;;;;;;;9.60;2.58;;;9.00;77.50;;;;;;5096480;28;20066;-77
2023/01/10 00:04:49;;;;;;;13.25;2.88;;;9.00;77.50;;;;;;5098998;28;20031;-77
2023/01/10 00:07:15;;;;;;;11.70;3.00;;;8.90;77.40;;;;;;5107368;28;20110;-76
2023/01/10 00:09:40;;;;;;;7.20;2.40;;;8.90;77.30;;;;;;5109335;28;20039;-77
2023/01/10 00:14:51;;;;;;;8.77;2.22;;;8.90;77.40;;;;;;5097578;28;20032;-77
2023/01/10 00:17:17;;;;;;;11.13;3.13;;;8.80;77.30;;;;;;5114271;27;20020;-77
2023/01/10 00:19:43;;;;;;;13.20;3.22;;;8.80;77.30;;;;;;5107123;28;20489;-77
2023/01/10 00:22:09;;;;;;;11.98;2.47;;;8.90;77.40;;;;;;5110924;28;20043;-77
2023/01/10 00:24:35;;;;;;;13.73;2.28;;;8.90;78.00;;;;;;5104944;28;20244;-77
2023/01/10 00:27:01;;;;;;;11.63;2.92;;;8.90;77.20;;;;;;5100942;28;20333;-77
2023/01/10 00:29:30;;;;;;;10.00;3.15;;;8.90;77.20;;;;;;5107107;28;20024;-77
2023/01/10 00:31:56;;;;;;;11.40;2.50;;;8.90;77.10;;;;;;5098794;28;20027;-78
2023/01/10 00:34:22;;;;;;;8.75;2.67;;;8.90;77.10;;;;;;5099479;28;20012;-77
2023/01/10 00:36:48;;;;;;;10.05;2.50;;;8.90;77.10;;;;;;5098451;28;20031;-77
2023/01/10 00:39:19;;;;;;;11.80;2.53;;;8.90;77.00;;;;;;5109058;28;20036;-77
2023/01/10 00:44:30;;;;;;;13.13;2.83;;;8.90;76.80;;;;;;5107897;28;20036;-77
2023/01/10 00:46:56;;;;;;;10.38;2.53;;;8.90;76.80;;;;;;5105572;28;20020;-77
2023/01/10 00:49:22;;;;;;;11.75;2.85;;;8.90;77.50;;;;;;5111545;28;20073;-77
2023/01/10 00:51:48;;;;;;;11.10;2.67;;;8.90;76.80;;;;;;5093820;28;20035;-77
2023/01/10 00:54:14;;;;;;;8.70;3.17;;;8.90;76.80;;;;;;5092297;28;20042;-77
2023/01/10 00:56:40;;;;;;;10.73;2.45;;;8.80;76.70;;;;;;5111079;27;20024;-77
2023/01/10 00:59:06;;;;;;;7.78;1.90;;;8.80;76.70;;;;;;5113777;28;20081;-77
2023/01/10 01:01:32;;;;;;;10.93;2.70;;;8.80;76.70;;;;;;5095218;28;20028;-78
2023/01/10 01:03:58;;;;;;;9.82;2.60;;;8.80;76.70;;;;;;5105457;28;20024;-77
2023/01/10 01:06:24;;;;;;;8.95;2.47;;;8.80;76.60;;;;;;5100955;28;20030;-77
2023/01/10 01:08:50;;;;;;;10.63;3.00;;;8.80;76.60;;;;;;5124833;28;20027;-77
2023/01/10 01:11:16;;;;;;;8.77;2.50;;;8.80;76.70;;;;;;5104004;28;20059;-77
2023/01/10 01:13:42;;;;;;;8.70;2.92;;;8.80;76.60;;;;;;5109614;28;20032;-78
2023/01/10 01:16:08;;;;;;;12.20;2.65;;;8.80;76.60;;;;;;5092640;28;20032;-77
2023/01/10 01:18:33;;;;;;;9.73;2.75;;;8.80;76.60;;;;;;5108797;28;20111;-77
2023/01/10 01:21:02;;;;;;;7.65;2.15;;;8.80;76.60;;;;;;5109714;28;20071;-77
2023/01/10 01:23:29;;;;;;;10.57;2.55;;;8.80;76.60;;;;;;5129848;28;20115;-77
2023/01/10 01:25:55;;;;;;;9.38;2.28;;;8.80;76.60;;;;;;5112886;28;20042;-77
2023/01/10 01:28:22;;;;;;;10.35;2.60;;;8.70;76.50;;;;;;5087701;28;20115;-77
2023/01/10 01:30:48;;;;;;;10.93;2.58;;;8.70;76.50;;;;;;5101054;28;20365;-78
2023/01/10 01:33:14;;;;;;;9.60;2.88;;;8.70;76.50;;;;;;5105115;28;20456;-77
2023/01/10 01:35:45;;;;;;;9.25;2.00;;;8.70;76.50;;;;;;5091870;28;20103;-78
2023/01/10 01:38:12;;;;;;;8.32;2.47;;;8.70;76.60;;;;;;5100631;28;20092;-77
2023/01/10 01:40:40;;;;;;;10.27;2.22;;;8.60;76.60;;;;;;5093961;28;20023;-78
2023/01/10 01:43:24;;;;;;;7.65;1.95;;;8.70;76.60;;;;;;5118222;27;20043;-77
2023/01/10 01:45:51;;;;;;;8.77;2.38;;;8.70;76.50;;;;;;5116935;28;20032;-77
2023/01/10 01:48:36;;;;;;;10.55;2.53;;;8.70;76.50;;;;;;5117267;28;20031;-77
2023/01/10 01:51:04;;;;;;;7.38;2.03;;;8.70;76.50;;;;;;5098792;28;20024;-77
2023/01/10 01:53:41;;;;;;;7.32;2.00;;;8.70;76.50;;;;;;5115881;27;20016;-77
2023/01/10 01:56:22;;;;;;;8.93;2.28;;;8.70;76.50;;;;;;5107949;28;20077;-77
2023/01/10 01:59:22;;;;;;;11.20;3.03;;;8.70;76.50;;;;;;5144770;27;20028;-78
2023/01/10 02:01:51;;;;;;;6.90;2.20;;;8.70;76.40;;;;;;5116069;27;20040;-77
2023/01/10 02:04:45;;;;;;;9.80;2.53;;;8.60;76.50;;;;;;5099183;28;20040;-77
2023/01/10 02:07:12;;;;;;;8.60;2.25;;;8.70;76.50;;;;;;5095764;28;20457;-77
2023/01/10 02:09:57;;;;;;;11.68;2.45;;;8.60;76.40;;;;;;5102877;28;20027;-77
2023/01/10 02:12:25;;;;;;;10.60;2.38;;;8.70;76.40;;;;;;5112240;28;20016;-77
2023/01/10 02:14:53;;;;;;;11.35;2.67;;;8.70;76.40;;;;;;5117362;27;20077;-77
2023/01/10 02:17:18;;;;;;;12.27;2.92;;;8.60;76.40;;;;;;5122902;27;20383;-77
2023/01/10 02:19:50;;;;;;;9.45;2.08;;;8.60;76.40;;;;;;5101138;28;20122;-77
2023/01/10 02:22:46;;;;;;;11.15;3.10;;;8.60;76.40;;;;;;5115757;28;20375;-77
2023/01/10 02:25:29;;;;;;;10.30;2.30;;;8.60;76.40;;;;;;5101544;28;20453;-77
2023/01/10 02:28:14;;;;;;;12.98;2.30;;;8.60;76.50;;;;;;5111413;28;20059;-77
2023/01/10 02:30:46;;;;;;;13.32;2.50;;;8.50;76.50;;;;;;5108373;28;20455;-77
2023/01/10 02:33:44;;;;;;;11.52;2.33;;;8.50;76.50;;;;;;5113653;28;20345;-77
2023/01/10 02:36:36;;;;;;;7.97;2.05;;;8.50;76.60;;;;;;5106275;28;20414;-77
2023/01/10 02:39:33;;;;;;;9.77;2.30;;;8.50;76.60;;;;;;5112953;28;20080;-78
2023/01/10 02:42:14;;;;;;;10.70;2.47;;;8.60;76.60;;;;;;5116602;28;20028;-77
2023/01/10 02:44:56;;;;;;;8.98;2.10;;;8.60;76.70;;;;;;5109134;28;20023;-77
2023/01/10 02:47:22;;;;;;;9.80;2.35;;;8.60;76.80;;;;;;5100758;28;20046;-77
2023/01/10 02:49:50;;;;;;;10.90;2.85;;;8.60;76.80;;;;;;5111838;28;20124;-77
2023/01/10 02:52:23;;;;;;;11.23;2.00;;;8.60;76.90;;;;;;5115776;28;20314;-77
2023/01/10 02:54:54;;;;;;;8.05;1.85;;;8.60;77.00;;;;;;5103269;28;20485;-77
2023/01/10 02:57:40;;;;;;;8.05;2.17;;;8.60;77.00;;;;;;5119676;27;20027;-77
2023/01/10 03:00:09;;;;;;;10.15;2.13;;;8.70;77.10;;;;;;5111150;28;20035;-77
2023/01/10 03:03:12;;;;;;;8.25;2.10;;;8.70;77.20;;;;;;5101961;28;20024;-77
2023/01/10 03:05:38;;;;;;;12.10;1.98;;;8.70;77.20;;;;;;5104097;28;20024;-77
2023/01/10 03:08:34;;;;;;;10.82;1.67;;;8.70;77.20;;;;;;5115884;28;20031;-77
2023/01/10 03:11:09;;;;;;;10.00;2.15;;;8.70;77.20;;;;;;5105044;28;20038;-77
2023/01/10 03:13:57;;;;;;;8.85;2.05;;;8.70;77.40;;;;;;5116981;28;20455;-77
2023/01/10 03:16:28;;;;;;;8.18;1.90;;;8.70;77.30;;;;;;5100695;28;20058;-78
2023/01/10 03:18:59;;;;;;;10.23;2.58;;;8.70;77.50;;;;;;5109607;28;20487;-77
2023/01/10 03:21:28;;;;;;;8.57;2.35;;;8.70;77.50;;;;;;5107899;28;20047;-77
2023/01/10 03:24:03;;;;;;;7.07;1.92;;;8.70;77.60;;;;;;5116998;28;20375;-77
2023/01/10 03:26:38;;;;;;;10.55;2.50;;;8.70;77.60;;;;;;5105863;28;20028;-77
2023/01/10 03:29:10;;;;;;;11.90;2.33;;;8.70;77.60;;;;;;5111351;28;20037;-77
2023/01/10 03:31:41;;;;;;;;;;;8.70;77.70;;;;;;5106462;28;20073;-77
2023/01/10 03:34:08;;;;;;;6.75;1.75;;;8.70;77.60;;;;;;5114924;28;20238;-77
2023/01/10 03:36:49;;;;;;;11.18;2.35;;;8.70;77.70;;;;;;5102360;28;20076;-77
2023/01/10 03:39:21;;;;;;;11.27;2.10;;;8.70;77.80;;;;;;5115381;28;20132;-77
2023/01/10 03:41:59;;;;;;;11.68;2.65;;;8.70;77.80;;;;;;5109273;28;20722;-77
2023/01/10 03:44:45;;;;;;;12.75;2.70;;;8.70;77.90;;;;;;5116221;28;20035;-77
2023/01/10 03:47:26;;;;;;;9.10;2.17;;;8.70;77.90;;;;;;5102573;28;20039;-77
2023/01/10 03:49:57;;;;;;;9.25;1.92;;;8.60;77.90;;;;;;5095080;28;20055;-77
2023/01/10 03:52:24;;;;;;;10.68;2.40;;;8.70;77.90;;;;;;5112559;28;20054;-77
2023/01/10 03:54:52;;;;;;;8.32;2.20;;;8.70;78.00;;;;;;5115390;28;20027;-77
2023/01/10 03:57:23;;;;;;;10.95;2.78;;;8.70;78.00;;;;;;5112654;28;20024;-78
2023/01/10 03:59:56;;;;;;;9.18;2.10;;;8.70;78.00;;;;;;5115104;28;20126;-77
2023/01/10 04:02:29;;;;;;;7.57;2.10;;;8.60;78.60;;;;;;5106070;28;20023;-77
2023/01/10 04:04:56;;;;;;;10.10;2.55;;;8.60;78.00;;;;;;5115546;28;20039;-78
2023/01/10 04:07:22;;;;;;;10.18;2.42;;;8.60;78.00;;;;;;5092590;28;20065;-77
2023/01/10 04:09:48;;;;;;;7.50;2.30;;;8.60;78.10;;;;;;5114880;28;20088;-77
2023/01/10 04:12:14;;;;;;;8.80;2.33;;;8.60;78.80;;;;;;5113136;28;20027;-77
2023/01/10 04:14:40;;;;;;;12.35;2.70;;;8.60;78.20;;;;;;5113943;28;20102;-77
2023/01/10 04:17:07;;;;;;;11.85;4.20;;;8.60;78.20;;;;;;5112902;28;20416;-77
2023/01/10 04:19:33;;;;;;;11.68;2.63;;;8.60;78.20;;;;;;5115304;28;20100;-78
2023/01/10 04:22:00;;;;;;;11.55;2.75;;;8.70;78.30;;;;;;5116035;28;20071;-77
2023/01/10 04:24:26;;;;;;;10.57;3.15;;;8.70;78.30;;;;;;5124820;28;20045;-77
2023/01/10 04:26:51;;;;;;;14.43;3.50;;;8.70;78.20;;;;;;5080646;28;20024;-78
2023/01/10 04:29:17;;;;;;;17.80;4.25;;;8.70;78.20;;;;;;5113055;28;20487;-78
2023/01/10 04:31:43;;;;;;;8.48;2.72;;;8.70;78.30;;;;;;5103610;28;20435;-78
2023/01/10 04:34:09;;;;;;;11.85;3.30;;;8.70;78.30;;;;;;5109621;28;20144;-78
2023/01/10 04:36:35;;;;;;;11.95;3.03;;;8.70;78.30;;;;;;5115656;28;20020;-77
2023/01/10 04:39:02;;;;;;;10.95;3.40;;;8.70;78.30;;;;;;5100750;28;20031;-78
2023/01/10 04:41:29;;;;;;;11.13;3.72;;;8.70;78.30;;;;;;5109064;28;20076;-77
2023/01/10 04:43:55;;;;;;;13.32;3.42;;;8.70;78.30;;;;;;5113649;28;20044;-77
2023/01/10 04:46:20;;;;;;;14.38;3.08;;;8.70;78.60;;;;;;5108239;28;20440;-78
2023/01/10 04:48:46;;;;;;;14.50;3.53;;;8.70;78.40;;;;;;5113328;28;20049;-77
2023/01/10 04:51:12;;;;;;;12.10;3.95;;;8.70;78.40;;;;;;5114983;28;20069;-77
2023/01/10 04:53:38;;;;;;;13.60;3.60;;;8.70;78.50;;;;;;5094313;28;20026;-77
2023/01/10 04:56:06;;;;;;;15.30;3.35;;;8.60;78.40;;;;;;5103785;28;20024;-77
2023/01/10 04:58:36;;;;;;;13.15;3.60;;;8.60;78.50;;;;;;5091576;28;20460;-78
2023/01/10 05:01:22;;;;;;;13.02;3.53;;;8.60;78.50;;;;;;5110370;28;20428;-77
2023/01/10 05:03:49;;;;;;;13.43;3.42;;;8.70;78.50;;;;;;5099295;28;20067;-77
2023/01/10 05:06:16;;;;;;;13.57;3.55;;;8.70;78.50;;;;;;5106125;28;20076;-78
2023/01/10 05:08:42;;;;;;;11.27;3.00;;;8.70;78.50;;;;;;5099752;28;20365;-77
2023/01/10 05:11:08;;;;;;;9.32;3.30;;;8.70;78.50;;;;;;5120091;28;20035;-78
2023/01/10 05:13:34;;;;;;;14.13;3.42;;;8.70;78.50;;;;;;5090688;28;20034;-77
2023/01/10 05:16:00;;;;;;;9.13;2.72;;;8.70;78.50;;;;;;5120685;28;20425;-77
2023/01/10 05:18:27;;;;;;;15.30;3.55;;;8.70;78.50;;;;;;5112978;27;20111;-77
2023/01/10 05:20:58;;;;;;;14.27;3.00;;;8.70;78.50;;;;;;5107865;27;20067;-77
2023/01/10 05:23:24;;;;;;;12.63;3.50;;;8.70;78.50;;;;;;5105536;28;20015;-77
2023/01/10 05:25:49;;;;;;;12.85;3.60;;;8.70;78.50;;;;;;5110484;27;20088;-77
2023/01/10 05:28:15;;;;;;;13.50;3.42;;;8.70;78.50;;;;;;5096193;28;20131;-78
2023/01/10 05:30:41;;;;;;;12.65;3.10;;;8.70;78.50;;;;;;5109699;27;20016;-78
2023/01/10 05:33:07;;;;;;;11.32;2.92;;;8.70;78.50;;;;;;5105789;27;20468;-77
2023/01/10 05:35:33;;;;;;;10.32;3.00;;;8.70;78.50;;;;;;5100533;27;20055;-78
2023/01/10 05:37:59;;;;;;;14.55;4.07;;;8.70;78.50;;;;;;5113883;27;20355;-78
2023/01/10 05:40:25;;;;;;;13.38;3.15;;;8.70;78.50;;;;;;5108042;28;20023;-77
2023/01/10 05:42:50;;;;;;;9.80;2.92;;;8.80;78.50;;;;;;5115873;28;20043;-78
2023/01/10 05:45:16;;;;;;;15.75;3.85;;;8.80;78.50;;;;;;5109916;28;20019;-77
2023/01/10 05:47:42;;;;;;;11.18;3.47;;;8.70;78.50;;;;;;5117349;28;20028;-77
2023/01/10 05:50:09;;;;;;;14.18;3.42;;;8.80;78.50;;;;;;5106549;28;20099;-78
2023/01/10 05:52:35;;;;;;;9.95;3.15;;;8.80;78.50;;;;;;5116543;28;20028;-77
2023/01/10 05:55:01;;;;;;;15.02;3.80;;;8.80;78.50;;;;;;5089166;28;20111;-78
2023/01/10 05:57:26;;;;;;;10.73;3.38;;;8.80;78.50;;;;;;5107183;27;20023;-78
2023/01/10 05:59:52;;;;;;;13.82;3.05;;;8.80;78.50;;;;;;5115829;28;20080;-78
2023/01/10 06:02:18;;;;;;;15.35;3.40;;;8.80;78.40;;;;;;5109879;28;20111;-77
2023/01/10 06:04:46;;;;;;;16.38;3.45;;;8.80;78.40;;;;;;5114633;28;20337;-77
2023/01/10 06:07:11;;;;;;;17.52;4.35;;;8.80;78.40;;;;;;5113232;28;20471;-77
2023/01/10 06:09:57;;;;;;;14.95;3.35;;;8.80;78.40;;;;;;5096252;28;20024;-78
2023/01/10 06:12:23;;;;;;;14.23;3.50;;;8.80;78.40;;;;;;5096193;28;20475;-78
2023/01/10 06:14:49;;;;;;;14.23;4.15;;;8.80;78.40;;;;;;5094013;28;20036;-78
2023/01/10 06:17:14;;;;;;;15.20;3.28;;;8.80;78.40;;;;;;5080245;28;20040;-78
2023/01/10 06:19:40;;;;;;;11.40;2.60;;;8.80;78.30;;;;;;5078581;28;20024;-78
2023/01/10 06:22:06;;;;;;;15.55;3.85;;;8.80;78.30;;;;;;5089135;28;20491;-79
2023/01/10 06:24:32;;;;;;;13.18;3.95;;;8.80;78.30;;;;;;5084027;28;20165;-79
2023/01/10 06:26:57;;;;;;;13.65;3.55;;;8.80;78.30;;;;;;5101225;28;20068;-78
2023/01/10 06:29:23;;;;;;;16.95;3.53;;;8.80;78.30;;;;;;5110465;28;20028;-78
2023/01/10 06:31:50;;;;;;;12.35;3.20;;;8.80;78.30;;;;;;5088516;28;20031;-78
2023/01/10 06:34:16;;;;;;;13.82;4.10;;;8.80;78.30;;;;;;5098945;28;20108;-78
2023/01/10 06:36:42;;;;;;;11.82;3.30;;;8.80;78.30;;;;;;5093662;28;20523;-78
2023/01/10 06:39:08;;;;;;;10.93;3.42;;;8.70;78.30;;;;;;5102289;28;20036;-78
2023/01/10 06:41:34;;;;;;;10.43;3.30;;;8.70;78.30;;;;;;5090253;28;20032;-78
2023/01/10 06:43:59;;;;;;;11.98;3.80;;;8.70;78.30;;;;;;5104301;28;20478;-78
2023/01/10 06:46:25;;;;;;;13.80;3.67;;;8.70;78.30;;;;;;5095933;28;20054;-78
2023/01/10 06:48:51;;;;;;;15.98;4.30;;;8.70;78.30;;;;;;5115527;28;20055;-78
2023/01/10 06:51:17;;;;;;;11.88;3.35;;;8.70;78.20;;;;;;5114831;28;20024;-76
2023/01/10 06:53:43;;;;;;;15.70;3.88;;;8.70;78.30;;;;;;5115765;27;20363;-76
2023/01/10 06:56:10;;;;;;;12.98;3.63;;;8.70;78.30;;;;;;5108853;27;20020;-74
2023/01/10 06:58:37;;;;;;;20.13;4.10;;;8.70;78.20;;;;;;5111390;27;20024;-77
2023/01/10 07:01:12;;;;;;;11.10;3.60;;;8.80;78.20;;;;;;5111237;27;20024;-78
2023/01/10 07:03:39;;;;;;;13.57;4.22;;;8.80;78.10;;;;;;5113422;27;20031;-76
2023/01/10 07:06:09;;;;;;;12.02;3.22;;;8.80;78.10;;;;;;5104142;27;20088;-76
2023/01/10 07:08:39;;;;;;;11.45;3.28;;;8.90;78.10;;;;;;5116998;27;20079;-74
2023/01/10 07:11:06;;;;;;;14.07;3.50;;;8.90;78.00;;;;;;5095805;28;20048;-76
2023/01/10 07:13:32;;;;;;;13.02;4.18;;;8.80;77.90;;;;;;5111753;28;20036;-77
2023/01/10 07:16:16;;;;;;;13.38;3.38;;;8.90;78.00;;;;;;5097904;28;20020;-76
2023/01/10 07:18:42;;;;;;;17.85;3.92;;;8.90;77.90;;;;;;5111863;28;20035;-77
2023/01/10 07:21:09;;;;;;;13.43;3.47;;;8.90;77.90;;;;;;5117102;28;20140;-75
2023/01/10 07:23:35;;;;;;;15.10;3.33;;;8.90;77.80;;;;;;5089246;28;20028;-75
2023/01/10 07:26:09;;;;;;;14.68;2.90;;;8.90;77.80;;;;;;5106696;28;20032;-76
2023/01/10 07:28:36;;;;;;;15.02;3.30;;;8.90;77.80;;;;;;5108870;28;20035;-77
2023/01/10 07:31:04;;;;;;;16.65;4.15;;;8.90;77.80;;;;;;5114700;28;20020;-73
2023/01/10 07:33:30;;;;;;;11.98;3.40;;;8.90;77.80;;;;;;5112713;28;20092;-75
2023/01/10 07:36:00;;;;;;;17.50;3.97;;;8.90;77.80;;;;;;5112149;28;20043;-73
2023/01/10 07:38:26;;;;;;;17.45;3.38;;;8.90;77.80;;;;;;5107007;28;20092;-75
2023/01/10 07:40:51;;;;;;;15.38;3.85;;;8.90;77.80;;;;;;5103372;28;20459;-75
2023/01/10 07:43:19;;;;;;;14.48;3.47;;;8.90;77.90;;;;;;5104715;28;20348;-74
2023/01/10 07:45:45;;;;;;;14.57;3.72;;;8.90;77.80;;;;;;5115358;28;20082;-73
2023/01/10 07:48:11;;;;;;;17.25;4.43;;;8.90;77.90;;;;;;5105613;28;20063;-75
2023/01/10 07:50:37;;;;;;;14.15;3.53;;;8.90;77.90;;;;;;5110304;28;20039;-74
2023/01/10 07:53:05;;;;;;;24.77;4.50;;;8.90;77.80;;;;;;5120731;27;20055;-74
2023/01/10 07:55:33;;;;;;;16.92;3.92;;;8.90;77.80;;;;;;5116130;27;20424;-74
2023/01/10 07:57:59;;;;;;;13.77;4.18;;;8.80;77.80;;;;;;5112031;28;20015;-76
2023/01/10 08:00:25;;;;;;;12.48;3.90;;;8.80;77.80;;;;;;5114035;28;20038;-76
2023/01/10 08:02:55;;;;;;;22.95;4.65;;;8.80;77.70;;;;;;5111247;28;20103;-74
2023/01/10 08:05:21;;;;;;;17.65;3.85;;;8.90;77.70;;;;;;5109306;28;20390;-74
2023/01/10 08:07:47;;;;;;;14.18;4.28;;;8.90;77.70;;;;;;5114596;28;20051;-74
2023/01/10 08:10:13;;;;;;;18.15;3.83;;;8.90;77.60;;;;;;5113859;28;20051;-74
2023/01/10 08:12:39;;;;;;;15.57;3.80;;;8.90;77.60;;;;;;5113541;28;20058;-74
2023/01/10 08:15:05;;;;;;;12.90;3.75;;;9.00;77.60;;;;;;5114142;28;20055;-74
2023/01/10 08:17:35;;;;;;;15.55;3.58;;;9.00;77.50;;;;;;5113975;28;20024;-74
2023/01/10 08:20:00;;;;;;;15.75;4.05;;;9.00;77.30;;;;;;5112008;28;20028;-74
2023/01/10 08:22:26;;;;;;;13.30;3.33;;;9.00;77.30;;;;;;5113902;28;20487;-74
2023/01/10 08:24:52;;;;;;;16.20;3.00;;;9.00;77.90;;;;;;5114570;28;20050;-74
2023/01/10 08:27:18;;;;;;;16.70;3.70;;;9.00;77.30;;;;;;5097053;28;20038;-74
2023/01/10 08:29:44;;;;;;;15.52;3.13;;;9.00;77.20;;;;;;5097399;28;20031;-74
2023/01/10 08:32:10;;;;;;;17.20;4.57;;;8.90;77.10;;;;;;5109676;28;20051;-74
2023/01/10 08:34:36;;;;;;;13.55;4.57;;;9.00;77.10;;;;;;5083447;28;20019;-74
2023/01/10 08:37:02;;;;;;;12.27;3.60;;;8.90;77.00;;;;;;5127835;27;20027;-74
2023/01/10 08:39:29;;;;;;;19.95;4.25;;;9.00;77.10;;;;;;5113696;28;20041;-75
2023/01/10 08:41:55;;;;;;;14.38;3.88;;;9.00;77.10;;;;;;5108711;28;20420;-75
2023/01/10 08:44:21;;;;;;;17.48;3.33;;;9.00;77.00;;;;;;5119353;28;20040;-74
2023/01/10 08:46:48;;;;;;;14.15;3.42;;;9.00;77.00;;;;;;5111808;28;20023;-74
2023/01/10 08:49:14;;;;;;;14.48;3.90;;;9.00;76.90;;;;;;5099108;28;20047;-75
2023/01/10 08:51:40;;;;;;;9.25;2.65;;;9.00;76.90;;;;;;5106166;27;20024;-75
2023/01/10 08:54:06;;;;;;;16.00;3.50;;;9.00;76.80;;;;;;5112168;27;20032;-74
2023/01/10 08:56:32;;;;;;;12.13;3.25;;;9.00;76.80;;;;;;5108417;27;20082;-74
2023/01/10 08:58:57;;;;;;;16.05;3.80;;;9.10;76.80;;;;;;5103927;27;20032;-74
2023/01/10 09:01:23;;;;;;;14.95;3.45;;;9.10;76.60;;;;;;5107653;27;20406;-74
2023/01/10 09:03:49;;;;;;;14.82;3.00;;;9.20;76.50;;;;;;5116671;27;20469;-75
2023/01/10 09:06:14;;;;;;;14.77;3.00;;;9.20;76.40;;;;;;5101091;28;20324;-74
2023/01/10 09:08:40;;;;;;;13.57;3.70;;;9.20;76.30;;;;;;5112311;27;20043;-74
2023/01/10 09:11:06;;;;;;;14.02;3.17;;;9.20;76.30;;;;;;5108711;27;20363;-74
2023/01/10 09:13:32;;;;;;;12.57;3.67;;;9.20;76.30;;;;;;5115926;27;20027;-74
2023/01/10 09:15:58;;;;;;;18.63;3.78;;;9.20;76.30;;;;;;5105797;27;20191;-74
2023/01/10 09:18:25;;;;;;;16.35;3.95;;;9.20;76.30;;;;;;5108137;27;20031;-74
2023/01/10 09:20:51;;;;;;;17.27;3.45;;;9.10;76.20;;;;;;5112862;27;20049;-74
2023/01/10 09:23:20;;;;;;;15.95;3.85;;;9.10;76.30;;;;;;5107043;27;20019;-74
2023/01/10 09:25:48;;;;;;;21.05;4.43;;;9.10;76.20;;;;;;5108545;27;20019;-74
2023/01/10 09:28:15;;;;;;;12.93;3.40;;;9.20;76.30;;;;;;5107095;27;20503;-75
2023/01/10 09:30:41;;;;;;;12.18;3.53;;;9.20;76.30;;;;;;5108311;27;20020;-74
2023/01/10 09:33:07;;;;;;;13.75;3.58;;;9.20;76.20;;;;;;5108010;27;20024;-74
2023/01/10 09:35:36;;;;;;;15.00;3.45;;;9.20;76.20;;;;;;5104372;27;20024;-73
2023/01/10 09:38:03;;;;;;;15.05;3.75;;;9.10;76.20;;;;;;5111491;27;20023;-74
2023/01/10 09:40:40;;;;;;;11.90;3.40;;;9.20;76.20;;;;;;5138806;27;20021;-72
2023/01/10 09:43:38;;;;;;;19.02;3.30;;;9.20;76.10;;;;;;5109248;27;20023;-71
2023/01/10 09:46:10;;;;;;;12.82;3.75;;;9.20;76.10;;;;;;5118669;27;20417;-73
2023/01/10 09:48:55;;;;;;;11.07;3.28;;;9.20;76.00;;;;;;5120222;28;20036;-72
2023/01/10 09:51:43;;;;;;;13.13;2.92;;;9.20;75.90;;;;;;5111987;28;20046;-73
2023/01/10 09:54:33;;;;;;;15.45;4.13;;;9.20;75.80;;;;;;5117572;28;20132;-72
2023/01/10 09:57:00;;;;;;;17.20;3.70;;;9.20;75.80;;;;;;5104772;28;20114;-72
2023/01/10 09:59:36;;;;;;;11.32;3.63;;;9.30;75.80;;;;;;5119663;28;20038;-72
2023/01/10 10:02:24;;;;;;;14.50;3.40;;;9.30;75.80;;;;;;5119111;28;20027;-72
2023/01/10 10:05:10;;;;;;;12.18;3.50;;;9.30;75.60;;;;;;5089413;28;20020;-73
2023/01/10 10:07:36;;;;;;;16.27;4.47;;;9.30;75.60;;;;;;5115440;28;20409;-74
2023/01/10 10:10:04;;;;;;;13.32;2.72;;;9.30;75.60;;;;;;5110243;28;20035;-74
2023/01/10 10:13:17;;;;;;;16.45;3.10;;;9.30;75.60;;;;;;5111464;28;20024;-73
2023/01/10 10:16:01;;;;;;;15.20;3.35;;;9.30;75.50;;;;;;5101023;28;20035;-73
2023/01/10 10:18:38;;;;;;;16.50;3.85;;;9.30;75.50;;;;;;5109730;28;20031;-73
2023/01/10 10:21:18;;;;;;;13.23;3.55;;;9.30;75.40;;;;;;5117540;28;20043;-73
2023/01/10 10:23:59;;;;;;;16.48;3.92;;;9.30;75.30;;;;;;5117213;28;20027;-73
2023/01/10 10:26:55;;;;;;;15.77;3.45;;;9.30;75.80;;;;;;5117200;28;20422;-73
2023/01/10 10:29:53;;;;;;;15.50;3.63;;;9.30;75.10;;;;;;5113746;27;20074;-73
2023/01/10 10:32:45;;;;;;;14.38;3.35;;;9.30;75.10;;;;;;5099639;28;20065;-73
2023/01/10 10:35:27;;;;;;;14.63;3.80;;;9.20;75.00;;;;;;5071593;28;20101;-72
2023/01/10 10:37:55;;;;;;;16.95;3.50;;;9.30;75.00;;;;;;5107765;28;20107;-73
2023/01/10 10:40:27;;;;;;;15.68;3.70;;;9.30;74.90;;;;;;5085116;28;20440;-73
2023/01/10 10:42:56;;;;;;;17.30;3.75;;;9.30;74.80;;;;;;5117441;28;20439;-73
2023/01/10 10:45:39;;;;;;;12.80;3.03;;;9.30;74.80;;;;;;5115611;28;20035;-73
2023/01/10 10:48:23;;;;;;;15.68;3.38;;;9.30;74.70;;;;;;5115563;28;20066;-73
2023/01/10 10:51:12;;;;;;;13.85;3.67;;;9.30;74.60;;;;;;5112618;28;20089;-73
2023/01/10 10:53:38;;;;;;;14.77;3.90;;;9.40;74.60;;;;;;5112962;28;20027;-73
2023/01/10 10:56:10;;;;;;;17.92;3.55;;;9.40;74.60;;;;;;5117472;28;20035;-73
2023/01/10 10:58:38;;;;;;;14.70;4.03;;;9.40;74.50;;;;;;5096489;28;20448;-73
2023/01/10 11:01:04;;;;;;;17.33;3.95;;;9.40;74.40;;;;;;5104095;28;20031;-73
2023/01/10 11:03:45;;;;;;;15.57;3.35;;;9.40;74.30;;;;;;5099030;28;20035;-73
2023/01/10 11:06:14;;;;;;;20.48;4.35;;;9.50;74.30;;;;;;5116215;28;20059;-73
2023/01/10 11:08:44;;;;;;;14.95;4.22;;;9.50;74.20;;;;;;5114230;28;20435;-73
2023/01/10 11:11:21;;;;;;;15.90;4.00;;;9.50;74.10;;;;;;5116513;28;20035;-73
2023/01/10 11:13:55;;;;;;;14.80;3.25;;;9.50;74.00;;;;;;5113339;28;20118;-73
2023/01/10 11:16:29;;;;;;;19.38;4.18;;;9.40;74.10;;;;;;5082833;28;20024;-73
2023/01/10 11:19:13;;;;;;;13.05;3.10;;;9.50;74.10;;;;;;5107396;28;20039;-73
2023/01/10 11:21:40;;;;;;;19.13;3.70;;;9.40;74.00;;;;;;5088413;28;20039;-73
2023/01/10 11:24:25;;;;;;;14.98;2.67;;;9.40;74.10;;;;;;5116386;28;20062;-73
2023/01/10 11:26:51;;;;;;;13.13;3.22;;;9.40;74.00;;;;;;5111246;28;20464;-73
2023/01/10 11:29:34;;;;;;;10.38;3.58;;;9.40;74.10;;;;;;5107215;28;20475;-73
2023/01/10 11:32:09;;;;;;;16.30;3.25;;;9.40;74.10;;;;;;5100903;28;20471;-73
2023/01/10 11:34:36;;;;;;;17.83;3.70;;;9.40;74.00;;;;;;5107727;28;20023;-74
2023/01/10 11:37:15;;;;;;;11.02;2.90;;;9.40;74.10;;;;;;5109998;28;20020;-73
2023/01/10 11:39:43;;;;;;;14.68;3.67;;;9.40;74.00;;;;;;5102970;28;20032;-74
2023/01/10 11:42:24;;;;;;;16.63;3.30;;;9.40;74.10;;;;;;5106224;28;20031;-75
2023/01/10 11:44:50;;;;;;;12.85;3.30;;;9.40;74.00;;;;;;5101174;28;20035;-75
2023/01/10 11:47:19;;;;;;;18.17;3.58;;;9.30;74.00;;;;;;5097036;28;20023;-75
2023/01/10 11:49:48;;;;;;;16.60;4.18;;;9.40;74.00;;;;;;5107525;28;20028;-74
2023/01/10 11:52:25;;;;;;;13.80;3.40;;;9.40;74.00;;;;;;5108334;28;20020;-74
2023/01/10 11:54:53;;;;;;;13.93;3.10;;;9.40;74.00;;;;;;5110275;28;20023;-74
2023/01/10 11:57:24;;;;;;;15.23;3.88;;;9.40;73.90;;;;;;5115570;27;20027;-75
2023/01/10 11:59:53;;;;;;;13.80;3.47;;;9.40;73.90;;;;;;5108119;28;20107;-75
2023/01/10 12:02:23;;;;;;;12.93;3.55;;;9.40;73.90;;;;;;5095989;28;20036;-75
2023/01/10 12:04:51;;;;;;;11.98;3.30;;;9.40;73.80;;;;;;5101245;28;20405;-74
2023/01/10 12:07:19;;;;;;;15.20;2.95;;;9.40;73.80;;;;;;5106858;28;20367;-75
2023/01/10 12:10:00;;;;;;;14.48;3.55;;;9.40;73.80;;;;;;5101314;28;20054;-74
2023/01/10 12:12:34;;;;;;;11.40;2.72;;;9.40;73.70;;;;;;5111275;28;20058;-74
2023/01/10 12:15:29;;;;;;;15.48;3.40;;;9.40;73.70;;;;;;5117892;28;20028;-73
2023/01/10 12:17:58;;;;;;;12.70;2.95;;;9.50;73.80;;;;;;5105875;28;20081;-74
2023/01/10 12:20:28;;;;;;;11.38;3.15;;;9.40;73.70;;;;;;5086552;28;20039;-74
2023/01/10 12:23:03;;;;;;;14.07;3.00;;;9.40;73.70;;;;;;5083093;28;20047;-72
2023/01/10 12:25:37;;;;;;;13.18;3.15;;;9.40;73.60;;;;;;5099490;27;20118;-72
2023/01/10 12:28:12;;;;;;;13.70;3.22;;;9.40;73.60;;;;;;5099028;28;20047;-73
2023/01/10 12:30:43;;;;;;;14.27;3.60;;;9.40;73.70;;;;;;5101380;27;20031;-74
2023/01/10 12:33:18;;;;;;;17.27;3.72;;;9.40;73.70;;;;;;5098304;27;20111;-73
2023/01/10 12:36:14;;;;;;;11.73;3.03;;;9.40;73.70;;;;;;5103923;27;20050;-73
2023/01/10 12:39:15;;;;;;;14.68;3.97;;;9.40;73.90;;;;;;5114172;27;20030;-73
2023/01/10 12:44:41;;;;;;;12.02;3.15;;;9.30;73.80;;;;;;5103296;28;20036;-73
2023/01/10 12:47:26;;;;;;;12.68;3.60;;;9.30;73.80;;;;;;5084754;28;20127;-74
2023/01/10 12:49:52;;;;;;;12.77;4.22;;;9.30;73.80;;;;;;5104470;28;20041;-74
2023/01/10 12:52:44;;;;;;;16.65;3.72;;;9.30;73.80;;;;;;5114147;28;20020;-74
2023/01/10 12:55:22;;;;;;;17.25;4.60;;;9.30;73.80;;;;;;5103264;28;20039;-73
2023/01/10 12:57:56;;;;;;;17.73;3.53;;;9.30;73.80;;;;;;5113257;28;20444;-73
2023/01/10 13:00:35;;;;;;;14.88;4.00;;;9.20;73.90;;;;;;5105528;28;20028;-73
2023/01/10 13:03:09;;;;;;;11.82;4.05;;;9.20;73.90;;;;;;5102340;28;20073;-72
2023/01/10 13:05:35;;;;;;;14.02;3.45;;;9.30;73.90;;;;;;5101327;28;20042;-74
2023/01/10 13:08:11;;;;;;;12.13;3.90;;;9.30;73.90;;;;;;5083533;28;20361;-74
2023/01/10 13:10:42;;;;;;;17.73;3.60;;;9.30;73.80;;;;;;5098991;28;20106;-74
2023/01/10 13:13:30;;;;;;;13.57;3.80;;;9.30;73.80;;;;;;5102806;28;20070;-73
2023/01/10 13:16:08;;;;;;;12.38;3.45;;;9.30;73.70;;;;;;5114052;28;20035;-74
2023/01/10 13:18:34;;;;;;;13.48;3.42;;;9.30;73.70;;;;;;5090691;28;20464;-75